Time;durP1;ratioP1;P1;durP2;ratioP2;P2;SDS_P1;SDS_P2;PMS_P1;PMS_P2;Temp;Humidity;BMP_temperature;BMP_pressure;BME280_temperature;BME280_humidity;BME280_pressure;Samples;Min_cycle;Max_cycle;Signal;HPM_P1;HPM_P2
2023/04/14 00:02:23;;;;;;;3.10;2.45;;;;;;;12.82;55.14;98093.28;4494685;31;34185;-65
2023/04/14 00:04:52;;;;;;;3.58;1.98;;;;;;;12.51;55.38;98079.69;4496999;31;34485;-66
2023/04/14 00:07:20;;;;;;;2.20;1.85;;;;;;;12.57;55.35;98067.47;4487984;31;33608;-66
2023/04/14 00:09:47;;;;;;;7.18;2.65;;;;;;;12.75;54.67;98072.66;4495511;31;34157;-65
2023/04/14 00:12:15;;;;;;;1.75;1.00;;;;;;;12.39;55.49;98069.47;4487181;31;33798;-66
2023/04/14 00:14:43;;;;;;;2.50;1.65;;;;;;;12.57;54.81;98073.66;4489015;31;31608;-65
2023/04/14 00:17:11;;;;;;;1.70;1.30;;;;;;;12.82;53.70;98084.38;4495008;31;32601;-63
2023/04/14 00:19:39;;;;;;;3.62;2.12;;;;;;;12.49;54.62;98079.03;4496203;31;33894;-63
2023/04/14 00:22:06;;;;;;;4.03;2.15;;;;;;;12.72;53.71;98081.88;4489608;31;33636;-63
2023/04/14 00:24:39;;;;;;;1.55;1.10;;;;;;;12.81;53.37;98088.94;4488824;31;34187;-63
2023/04/14 00:27:10;;;;;;;7.72;1.30;;;;;;;13.03;52.71;98087.37;4487189;31;32633;-64
2023/04/14 00:29:38;;;;;;;1.87;1.45;;;;;;;12.83;53.05;98089.56;4493532;31;34781;-66
2023/04/14 00:32:05;;;;;;;0.65;0.65;;;;;;;12.95;52.91;98081.19;4483502;31;35053;-65
2023/04/14 00:34:33;;;;;;;1.27;1.05;;;;;;;13.19;52.29;98083.84;4491990;31;33665;-64
2023/04/14 00:37:00;;;;;;;1.98;1.58;;;;;;;13.23;52.11;98095.06;4485238;31;33505;-66
2023/04/14 00:39:29;;;;;;;2.78;1.70;;;;;;;13.45;51.47;98085.44;4494889;31;33803;-66
2023/04/14 00:42:00;;;;;;;6.50;1.77;;;;;;;13.19;52.24;98070.41;4493504;31;33877;-65
2023/04/14 00:44:29;;;;;;;1.50;1.12;;;;;;;12.79;52.99;98071.31;4493930;31;33990;-65
2023/04/14 00:46:58;;;;;;;2.72;1.75;;;;;;;13.00;52.22;98077.00;4494271;31;34670;-67
2023/04/14 00:49:25;;;;;;;5.20;1.83;;;;;;;12.88;52.45;98078.34;4484011;31;34963;-66
2023/04/14 00:51:53;;;;;;;0.93;0.65;;;;;;;13.10;51.95;98073.25;4488620;31;34969;-67
2023/04/14 00:54:21;;;;;;;1.08;1.00;;;;;;;13.32;51.26;98060.97;4496523;31;33395;-64
2023/04/14 00:56:49;;;;;;;1.15;1.05;;;;;;;13.22;51.69;98064.66;4490891;31;33766;-66
2023/04/14 00:59:17;;;;;;;1.90;1.25;;;;;;;13.18;51.54;98059.81;4488337;31;35826;-65
2023/04/14 01:01:45;;;;;;;3.10;2.45;;;;;;;13.41;50.97;98055.41;4488101;31;33851;-65
2023/04/14 01:04:12;;;;;;;3.95;1.87;;;;;;;13.30;50.87;98041.50;4481975;32;34546;-64
2023/04/14 01:06:40;;;;;;;2.95;1.55;;;;;;;12.90;52.03;98043.25;4483709;31;33647;-65
2023/04/14 01:09:08;;;;;;;7.65;1.98;;;;;;;12.75;52.48;98035.06;4493289;31;33804;-66
2023/04/14 01:12:10;;;;;;;2.00;1.48;;;;;;;12.60;52.62;98029.53;4501106;31;34336;-65
2023/04/14 01:14:41;;;;;;;3.08;1.87;;;;;;;12.78;52.27;98018.63;4479976;31;33318;-64
2023/04/14 01:17:19;;;;;;;4.60;2.45;;;;;;;12.36;53.14;98000.91;4497832;31;33622;-66
2023/04/14 01:20:35;;;;;;;2.37;1.25;;;;;;;12.04;53.96;97997.19;4499391;31;34051;-65
2023/04/14 01:23:07;;;;;;;0.90;0.88;;;;;;;12.53;52.64;97978.41;4489218;31;32834;-64
2023/04/14 01:26:02;;;;;;;2.28;1.62;;;;;;;12.29;52.70;97967.69;4497516;31;34067;-66
2023/04/14 01:29:02;;;;;;;1.27;1.00;;;;;;;11.92;53.99;97962.84;4484143;31;33713;-64
2023/04/14 01:31:33;;;;;;;0.88;0.70;;;;;;;12.34;52.49;97971.53;4492280;31;33842;-64
2023/04/14 01:34:21;;;;;;;1.10;1.00;;;;;;;12.06;53.09;97956.81;4485551;32;32445;-64
2023/04/14 01:36:56;;;;;;;1.58;1.10;;;;;;;12.60;51.53;97970.50;4493554;31;31866;-64
2023/04/14 01:39:26;;;;;;;1.75;1.52;;;;;;;12.65;51.14;97965.47;4501360;31;34088;-64
2023/04/14 01:41:57;;;;;;;1.85;1.42;;;;;;;12.79;50.82;97963.91;4491064;31;35618;-64
2023/04/14 01:44:25;;;;;;;3.70;2.20;;;;;;;12.81;50.51;97970.78;4494749;31;33602;-63
2023/04/14 01:47:02;;;;;;;3.45;2.08;;;;;;;12.90;50.07;97954.66;4492832;31;33707;-63
2023/04/14 01:49:32;;;;;;;2.00;1.37;;;;;;;12.40;51.49;97962.00;4497053;31;33778;-63
2023/04/14 01:52:01;;;;;;;3.00;1.48;;;;;;;12.40;51.87;97958.47;4485148;31;33977;-65
2023/04/14 01:54:30;;;;;;;1.27;1.10;;;;;;;12.76;50.67;97957.03;4499773;31;34757;-64
2023/04/14 01:57:00;;;;;;;1.20;1.10;;;;;;;12.48;50.94;97950.41;4486338;31;33341;-65
2023/04/14 01:59:29;;;;;;;9.52;2.25;;;;;;;13.03;49.67;97950.41;4495681;31;34944;-66
2023/04/14 02:01:59;;;;;;;6.30;3.05;;;;;;;12.65;50.73;97930.56;4496337;31;34838;-65
2023/04/14 02:04:29;;;;;;;3.17;1.33;;;;;;;12.69;50.78;97925.69;4500464;31;34972;-63
2023/04/14 02:06:58;;;;;;;7.00;1.67;;;;;;;12.77;50.21;97929.19;4485627;31;33243;-64
2023/04/14 02:09:27;;;;;;;2.28;1.60;;;;;;;12.73;50.39;97922.50;4497782;31;31839;-65
2023/04/14 02:11:55;;;;;;;1.25;0.95;;;;;;;12.91;49.70;97927.63;4499762;31;33940;-64
2023/04/14 02:14:23;;;;;;;1.45;1.12;;;;;;;12.64;50.32;97936.94;4499666;31;33615;-64
2023/04/14 02:16:52;;;;;;;1.20;1.10;;;;;;;12.33;50.86;97936.84;4499022;31;33514;-62
2023/04/14 02:19:20;;;;;;;0.98;0.95;;;;;;;12.68;50.17;97946.34;4497957;31;34512;-64
2023/04/14 02:21:49;;;;;;;2.28;1.42;;;;;;;12.85;49.68;97951.66;4494508;31;34052;-63
2023/04/14 02:24:17;;;;;;;1.65;1.33;;;;;;;13.20;48.75;97940.44;4493324;31;34885;-63
2023/04/14 02:26:54;;;;;;;2.22;1.52;;;;;;;12.66;49.92;97955.56;4482485;31;34406;-64
2023/04/14 02:29:23;;;;;;;1.17;1.08;;;;;;;12.91;49.13;97954.50;4497233;31;33420;-63
2023/04/14 02:32:02;;;;;;;2.22;1.45;;;;;;;12.98;49.23;97960.00;4482034;31;35276;-63
2023/04/14 02:34:33;;;;;;;1.33;1.23;;;;;;;13.22;48.55;97956.38;4486502;31;33823;-63
2023/04/14 02:37:15;;;;;;;0.65;0.65;;;;;;;12.91;49.20;97962.53;4485269;31;33169;-62
2023/04/14 02:39:50;;;;;;;3.53;1.67;;;;;;;12.68;49.62;97951.72;4483603;31;32345;-62
2023/04/14 02:42:21;;;;;;;1.92;1.60;;;;;;;12.96;49.30;97948.59;4483823;31;34362;-63
2023/04/14 02:44:52;;;;;;;1.23;1.12;;;;;;;12.99;49.01;97957.13;4494047;31;33950;-63
2023/04/14 02:47:24;;;;;;;1.50;1.40;;;;;;;13.17;48.81;97950.69;4482529;31;33614;-66
2023/04/14 02:49:55;;;;;;;1.05;1.05;;;;;;;13.03;48.77;97946.88;4482790;31;33952;-62
2023/04/14 02:52:28;;;;;;;1.40;1.30;;;;;;;13.25;48.41;97942.63;4485439;31;32884;-63
2023/04/14 02:54:56;;;;;;;3.05;1.25;;;;;;;13.30;48.35;97944.78;4485192;31;32357;-62
2023/04/14 02:57:25;;;;;;;6.30;1.58;;;;;;;13.19;48.88;97941.47;4495989;31;33315;-64
2023/04/14 02:59:54;;;;;;;2.10;1.52;;;;;;;13.22;48.62;97945.63;4491634;31;33753;-63
2023/04/14 03:02:22;;;;;;;1.45;1.20;;;;;;;13.32;48.34;97926.63;4483878;31;34877;-62
2023/04/14 03:04:52;;;;;;;0.80;0.80;;;;;;;13.60;47.63;97930.50;4494548;31;33261;-62
2023/04/14 03:07:20;;;;;;;2.10;1.58;;;;;;;13.24;48.53;97920.28;4484246;31;33526;-62
2023/04/14 03:09:49;;;;;;;1.40;1.15;;;;;;;13.44;48.08;97925.22;4481447;31;35332;-63
2023/04/14 03:12:17;;;;;;;2.28;1.95;;;;;;;13.03;49.42;97925.38;4492888;31;34673;-63
2023/04/14 03:14:46;;;;;;;1.85;1.27;;;;;;;12.90;49.73;97919.75;4493592;31;33637;-63
2023/04/14 03:17:16;;;;;;;1.92;1.45;;;;;;;13.23;48.79;97912.37;4483139;31;31534;-66
2023/04/14 03:19:47;;;;;;;2.20;1.62;;;;;;;12.90;49.39;97919.75;4494839;31;32573;-65
2023/04/14 03:22:19;;;;;;;2.25;1.52;;;;;;;13.21;49.05;97912.56;4488740;31;33401;-65
2023/04/14 03:24:47;;;;;;;3.10;1.52;;;;;;;12.98;49.15;97898.25;4496832;31;33657;-64
2023/04/14 03:27:21;;;;;;;1.80;1.33;;;;;;;13.01;49.86;97885.28;4480604;31;33424;-64
2023/04/14 03:29:51;;;;;;;2.28;1.70;;;;;;;12.90;49.65;97876.78;4493585;31;34023;-64
2023/04/14 03:32:19;;;;;;;3.37;1.48;;;;;;;13.31;49.13;97884.66;4485256;31;33832;-63
2023/04/14 03:34:53;;;;;;;4.40;2.05;;;;;;;13.15;49.82;97909.72;4489661;31;33595;-65
2023/04/14 03:37:25;;;;;;;2.30;1.50;;;;;;;12.94;50.09;97929.16;4480239;31;34572;-63
2023/04/14 03:39:53;;;;;;;2.70;1.85;;;;;;;13.61;48.39;97937.56;4495866;31;34780;-63
2023/04/14 03:42:23;;;;;;;1.55;1.33;;;;;;;13.27;49.24;97927.16;4497514;31;33613;-64
2023/04/14 03:44:53;;;;;;;3.55;1.60;;;;;;;13.67;47.90;97936.00;4496155;31;33084;-65
2023/04/14 03:47:23;;;;;;;2.83;1.87;;;;;;;13.18;49.75;97961.25;4494797;31;33464;-65
2023/04/14 03:49:55;;;;;;;1.25;0.98;;;;;;;13.12;50.54;97996.87;4493204;31;35152;-65
2023/04/14 03:52:24;;;;;;;5.25;2.47;;;;;;;13.63;49.49;97989.28;4487273;31;33960;-64
2023/04/14 03:54:54;;;;;;;2.05;1.52;;;;;;;13.31;50.25;97995.66;4485200;31;34939;-64
2023/04/14 03:57:22;;;;;;;3.40;2.17;;;;;;;13.64;50.20;97980.22;4477025;31;33362;-65
2023/04/14 03:59:51;;;;;;;3.20;1.55;;;;;;;13.27;50.93;97978.22;4491480;31;32658;-65
2023/04/14 04:02:19;;;;;;;4.53;1.55;;;;;;;14.13;48.95;97973.66;4484569;31;33855;-64
2023/04/14 04:04:48;;;;;;;3.15;1.95;;;;;;;14.07;49.14;97967.13;4488732;31;32569;-63
2023/04/14 04:07:16;;;;;;;2.58;2.05;;;;;;;14.22;48.81;97959.09;4486291;31;33367;-64
2023/04/14 04:09:45;;;;;;;1.55;1.25;;;;;;;13.93;49.40;97959.84;4491932;31;33806;-65
2023/04/14 04:12:15;;;;;;;2.12;1.85;;;;;;;14.22;48.39;97956.41;4488178;31;35265;-64
2023/04/14 04:14:43;;;;;;;2.40;1.85;;;;;;;14.30;48.46;97947.44;4500770;31;33625;-64
2023/04/14 04:17:12;;;;;;;4.10;2.28;;;;;;;14.19;48.55;97951.41;4481606;31;34262;-64
2023/04/14 04:19:42;;;;;;;2.87;2.35;;;;;;;14.44;48.01;97949.31;4491807;31;33831;-64
2023/04/14 04:22:10;;;;;;;3.85;2.67;;;;;;;14.46;47.92;97949.97;4491377;31;33815;-64
2023/04/14 04:24:39;;;;;;;4.53;1.67;;;;;;;14.26;48.56;97943.44;4491976;31;32775;-65
2023/04/14 04:27:08;;;;;;;2.28;1.87;;;;;;;13.91;48.99;97932.31;4482817;31;33333;-64
2023/04/14 04:29:53;;;;;;;;;;;;;;;13.63;50.13;97922.06;4492212;31;33611;-64
2023/04/14 04:32:21;;;;;;;10.55;3.12;;;;;;;13.82;49.44;97912.69;4490855;31;34592;-64
2023/04/14 04:34:49;;;;;;;4.10;1.65;;;;;;;13.27;50.74;97911.88;4483937;31;33450;-64
2023/04/14 04:37:20;;;;;;;3.50;1.45;;;;;;;13.62;49.75;97904.28;4491436;31;33899;-63
2023/04/14 04:39:48;;;;;;;1.33;1.05;;;;;;;13.99;48.95;97898.09;4485953;31;34691;-64
2023/04/14 04:42:16;;;;;;;1.08;1.00;;;;;;;13.49;50.23;97899.50;4485429;31;34081;-65
2023/04/14 04:44:44;;;;;;;2.80;1.92;;;;;;;13.44;50.53;97909.94;4491006;31;33708;-64
2023/04/14 04:47:11;;;;;;;6.75;1.75;;;;;;;13.62;49.87;97920.41;4485809;31;32970;-64
2023/04/14 04:49:39;;;;;;;5.57;3.03;;;;;;;13.42;50.35;97932.62;4485625;31;33490;-64
2023/04/14 04:52:06;;;;;;;2.55;2.33;;;;;;;13.41;50.51;97931.78;4493502;31;33798;-64
2023/04/14 04:54:34;;;;;;;3.95;2.87;;;;;;;13.24;50.86;97916.75;4488993;31;33927;-64
2023/04/14 04:57:02;;;;;;;1.20;1.02;;;;;;;13.13;51.10;97923.34;4492745;31;34438;-64
2023/04/14 04:59:29;;;;;;;1.85;1.58;;;;;;;13.60;50.28;97933.19;4481258;31;34539;-65
2023/04/14 05:01:57;;;;;;;2.00;1.60;;;;;;;13.52;50.27;97923.31;4484327;31;34302;-65
2023/04/14 05:04:24;;;;;;;1.92;1.58;;;;;;;13.85;49.56;97933.00;4486257;31;33473;-64
2023/04/14 05:06:52;;;;;;;4.37;1.30;;;;;;;13.64;50.25;97953.34;4485277;31;33377;-64
2023/04/14 05:09:20;;;;;;;3.90;2.30;;;;;;;13.76;50.21;97961.81;4493223;31;34821;-65
2023/04/14 05:11:47;;;;;;;4.78;2.08;;;;;;;14.06;49.25;97961.91;4482840;31;34697;-63
2023/04/14 05:14:15;;;;;;;3.15;2.78;;;;;;;13.75;49.73;97954.78;4493154;31;33895;-63
2023/04/14 05:16:42;;;;;;;2.65;2.05;;;;;;;14.05;49.00;97958.41;4493374;31;33036;-63
2023/04/14 05:19:10;;;;;;;3.80;1.95;;;;;;;14.11;48.79;97955.00;4490852;31;34042;-64
2023/04/14 05:21:37;;;;;;;2.78;1.75;;;;;;;14.12;48.85;97961.19;4486215;31;35199;-63
2023/04/14 05:24:07;;;;;;;3.80;2.40;;;;;;;13.80;49.25;97956.91;4482722;31;33901;-64
2023/04/14 05:26:35;;;;;;;2.83;1.85;;;;;;;13.21;50.92;97950.16;4488179;31;33072;-64
2023/04/14 05:29:22;;;;;;;3.92;2.03;;;;;;;13.66;49.59;97962.03;4485752;31;35131;-64
2023/04/14 05:31:50;;;;;;;2.67;1.95;;;;;;;13.11;51.43;97962.97;4492843;31;33912;-62
2023/04/14 05:34:17;;;;;;;2.53;1.65;;;;;;;13.72;49.85;97947.88;4495274;31;32859;-64
2023/04/14 05:36:45;;;;;;;1.87;1.75;;;;;;;13.32;51.06;97958.87;4484807;31;33613;-63
2023/04/14 05:39:12;;;;;;;5.30;2.17;;;;;;;13.64;50.28;97958.72;4490330;31;35118;-63
2023/04/14 05:41:40;;;;;;;3.53;2.08;;;;;;;13.81;50.19;97956.75;4487910;31;33021;-63
2023/04/14 05:44:07;;;;;;;2.42;1.77;;;;;;;14.29;48.97;97954.69;4492561;31;33637;-64
2023/04/14 05:46:35;;;;;;;2.00;1.60;;;;;;;14.19;49.29;97972.94;4493588;31;33378;-63
2023/04/14 05:49:03;;;;;;;2.50;1.65;;;;;;;14.24;48.78;97980.47;4494149;31;34294;-63
2023/04/14 05:51:31;;;;;;;1.83;1.17;;;;;;;14.01;49.43;97978.63;4493964;31;34058;-63
2023/04/14 05:53:59;;;;;;;1.87;1.45;;;;;;;14.04;50.26;97980.94;4487459;31;33902;-63
2023/04/14 05:56:27;;;;;;;2.65;2.05;;;;;;;14.00;50.80;97979.63;4488280;31;34492;-62
2023/04/14 05:58:55;;;;;;;2.85;1.73;;;;;;;13.86;51.50;97972.31;4492232;31;33661;-62
2023/04/14 06:01:22;;;;;;;3.53;2.47;;;;;;;14.19;50.86;97956.78;4486432;31;33915;-62
2023/04/14 06:03:50;;;;;;;6.12;2.47;;;;;;;13.26;53.28;97966.63;4491209;31;35044;-62
2023/04/14 06:06:20;;;;;;;4.50;2.80;;;;;;;13.82;52.10;97955.72;4489232;31;33750;-62
2023/04/14 06:08:48;;;;;;;3.78;2.60;;;;;;;14.28;51.08;97962.91;4492960;31;34707;-63
2023/04/14 06:11:15;;;;;;;2.42;1.48;;;;;;;14.38;50.92;97961.66;4494477;31;34080;-64
2023/04/14 06:13:43;;;;;;;3.33;2.00;;;;;;;13.85;52.20;97957.22;4490944;31;33678;-64
2023/04/14 06:16:10;;;;;;;2.85;1.70;;;;;;;14.26;50.55;97964.97;4488633;31;31921;-66
2023/04/14 06:18:38;;;;;;;3.72;1.37;;;;;;;14.69;49.73;97963.41;4488903;31;33595;-65
2023/04/14 06:21:06;;;;;;;3.78;1.75;;;;;;;14.25;50.54;97956.03;4491675;31;35011;-65
2023/04/14 06:23:33;;;;;;;3.28;2.45;;;;;;;14.53;49.91;97959.00;4493631;31;33885;-65
2023/04/14 06:26:04;;;;;;;3.85;1.80;;;;;;;13.48;52.44;97948.03;4496161;31;34642;-65
2023/04/14 06:28:31;;;;;;;3.62;2.08;;;;;;;14.16;50.65;97941.84;4493237;31;34498;-66
2023/04/14 06:30:59;;;;;;;4.30;3.08;;;;;;;13.75;51.76;97946.69;4488334;31;33992;-66
2023/04/14 06:33:27;;;;;;;4.05;1.98;;;;;;;13.61;52.56;97942.94;4488929;31;33992;-66
2023/04/14 06:35:54;;;;;;;4.43;1.60;;;;;;;13.74;51.99;97931.59;4487207;31;33348;-66
2023/04/14 06:38:23;;;;;;;2.53;1.48;;;;;;;14.37;50.47;97940.31;4485936;31;33712;-65
2023/04/14 06:40:51;;;;;;;3.40;2.72;;;;;;;14.29;50.24;97930.47;4491348;31;34109;-65
2023/04/14 06:43:20;;;;;;;2.10;1.85;;;;;;;14.27;50.36;97927.09;4488301;31;33564;-65
2023/04/14 06:45:49;;;;;;;1.55;1.27;;;;;;;13.89;50.88;97924.41;4493403;31;33122;-66
2023/04/14 06:48:17;;;;;;;3.42;1.90;;;;;;;13.68;51.37;97916.19;4483394;31;33684;-66
2023/04/14 06:50:52;;;;;;;1.33;1.10;;;;;;;13.77;51.27;97925.00;4491688;31;33291;-64
2023/04/14 06:53:20;;;;;;;2.25;1.12;;;;;;;13.61;51.25;97924.12;4483056;31;34696;-65
2023/04/14 06:55:48;;;;;;;4.70;2.62;;;;;;;14.01;50.84;97924.81;4484689;31;33091;-65
2023/04/14 06:58:15;;;;;;;4.90;2.60;;;;;;;13.76;51.44;97929.53;4491438;31;35233;-65
2023/04/14 07:00:43;;;;;;;3.00;2.40;;;;;;;13.42;52.37;97933.47;4489133;31;35186;-65
2023/04/14 07:03:11;;;;;;;2.22;1.10;;;;;;;13.61;52.21;97934.00;4487934;31;33391;-66
2023/04/14 07:05:38;;;;;;;2.35;1.55;;;;;;;13.51;52.87;97942.31;4489408;31;34416;-66
2023/04/14 07:08:06;;;;;;;1.52;1.27;;;;;;;14.30;50.62;97942.06;4484116;31;32589;-65
2023/04/14 07:10:33;;;;;;;1.35;0.65;;;;;;;13.86;51.46;97932.81;4495605;31;34189;-66
2023/04/14 07:13:01;;;;;;;5.57;2.40;;;;;;;14.11;50.46;97928.09;4488695;31;34143;-65
2023/04/14 07:15:28;;;;;;;3.78;3.22;;;;;;;13.94;50.67;97924.69;4495409;31;33301;-66
2023/04/14 07:17:56;;;;;;;5.00;2.42;;;;;;;13.97;50.59;97934.28;4490160;31;32500;-66
2023/04/14 07:20:27;;;;;;;2.85;2.25;;;;;;;14.11;50.41;97936.16;4496493;31;33634;-64
2023/04/14 07:22:55;;;;;;;3.92;2.15;;;;;;;14.27;50.51;97932.50;4483087;31;33862;-66
2023/04/14 07:25:22;;;;;;;3.15;2.10;;;;;;;12.91;53.95;97934.84;4498270;31;33769;-66
2023/04/14 07:27:49;;;;;;;3.95;2.45;;;;;;;13.91;51.48;97935.81;4492035;31;36050;-67
2023/04/14 07:30:30;;;;;;;6.85;2.83;;;;;;;14.28;50.62;97926.06;4483866;31;34929;-66
2023/04/14 07:33:00;;;;;;;4.45;3.03;;;;;;;14.17;51.01;97918.47;4486850;31;34693;-65
2023/04/14 07:35:28;;;;;;;2.97;2.10;;;;;;;14.23;50.92;97925.81;4498538;31;32583;-65
2023/04/14 07:37:56;;;;;;;4.93;3.47;;;;;;;14.29;51.46;97913.50;4493466;31;34787;-66
2023/04/14 07:40:24;;;;;;;2.95;2.17;;;;;;;14.42;50.94;97916.38;4488304;31;32521;-65
2023/04/14 07:42:51;;;;;;;3.55;2.47;;;;;;;14.33;51.21;97917.47;4496497;31;32769;-66
2023/04/14 07:45:19;;;;;;;5.03;2.28;;;;;;;14.59;51.11;97909.00;4491481;31;33663;-67
2023/04/14 07:47:47;;;;;;;6.95;3.92;;;;;;;14.67;51.38;97923.22;4485559;31;34024;-67
2023/04/14 07:50:14;;;;;;;5.12;3.05;;;;;;;14.36;52.23;97919.81;4498551;31;33979;-68
2023/04/14 07:52:46;;;;;;;9.40;4.00;;;;;;;14.82;50.97;97911.59;4498964;31;32751;-65
2023/04/14 07:55:13;;;;;;;4.75;2.70;;;;;;;14.77;50.91;97914.84;4493402;31;33659;-66
2023/04/14 07:57:41;;;;;;;4.32;2.78;;;;;;;14.26;52.62;97920.06;4491581;31;33183;-67
2023/04/14 08:00:09;;;;;;;3.87;2.72;;;;;;;14.58;51.52;97918.09;4494888;31;35315;-66
2023/04/14 08:02:38;;;;;;;2.33;1.85;;;;;;;15.14;50.27;97921.97;4487035;31;33780;-65
2023/04/14 08:05:07;;;;;;;4.25;2.78;;;;;;;14.81;51.21;97929.63;4489846;31;34612;-65
2023/04/14 08:07:35;;;;;;;10.85;3.08;;;;;;;14.71;51.83;97923.69;4492900;31;33557;-66
2023/04/14 08:10:02;;;;;;;2.50;1.80;;;;;;;14.72;51.40;97914.56;4489675;31;34865;-65
2023/04/14 08:12:30;;;;;;;2.58;2.10;;;;;;;14.42;51.61;97913.69;4500028;31;34670;-67
2023/04/14 08:14:58;;;;;;;7.00;3.17;;;;;;;15.05;50.58;97906.09;4487956;31;32990;-65
2023/04/14 08:17:26;;;;;;;8.32;2.75;;;;;;;14.05;53.18;97909.16;4487938;31;33542;-66
2023/04/14 08:19:54;;;;;;;3.67;2.60;;;;;;;14.38;52.09;97899.78;4483478;31;32520;-67
2023/04/14 08:22:21;;;;;;;2.35;1.67;;;;;;;14.23;52.07;97909.66;4498701;31;33836;-67
2023/04/14 08:24:49;;;;;;;3.83;3.12;;;;;;;14.30;52.14;97899.00;4486273;31;33261;-66
2023/04/14 08:27:17;;;;;;;3.92;1.95;;;;;;;14.23;52.90;97903.44;4492153;31;34742;-63
2023/04/14 08:29:44;;;;;;;3.87;2.33;;;;;;;14.84;51.27;97898.78;4492909;31;35346;-65
2023/04/14 08:32:12;;;;;;;3.08;2.60;;;;;;;14.42;52.63;97897.53;4492164;31;33814;-65
2023/04/14 08:34:39;;;;;;;4.57;2.78;;;;;;;14.86;51.34;97897.59;4490726;31;33338;-65
2023/04/14 08:37:27;;;;;;;3.95;2.47;;;;;;;15.04;50.58;97905.25;4496411;31;33787;-64
2023/04/14 08:39:55;;;;;;;4.05;2.45;;;;;;;14.64;51.80;97910.13;4497968;31;32622;-66
2023/04/14 08:42:23;;;;;;;2.58;2.03;;;;;;;14.17;53.43;97916.59;4486632;31;32577;-65
2023/04/14 08:44:51;;;;;;;2.17;1.42;;;;;;;14.10;54.01;97915.66;4487148;31;34611;-67
2023/04/14 08:47:21;;;;;;;5.75;2.10;;;;;;;13.58;56.08;97918.22;4493287;31;33727;-64
2023/04/14 08:49:57;;;;;;;8.98;3.17;;;;;;;13.97;55.56;97918.97;4481296;31;32785;-65
2023/04/14 08:52:26;;;;;;;3.70;2.47;;;;;;;13.60;57.38;97933.19;4486282;31;33839;-67
2023/04/14 08:54:56;;;;;;;2.08;1.50;;;;;;;14.18;56.71;97926.34;4482962;31;33305;-66
2023/04/14 08:57:24;;;;;;;3.55;2.97;;;;;;;13.64;58.73;97926.44;4484241;31;34778;-62
2023/04/14 08:59:55;;;;;;;3.87;3.25;;;;;;;13.70;59.24;97931.09;4490668;31;34890;-65
2023/04/14 09:02:23;;;;;;;9.15;5.50;;;;;;;14.20;58.67;97927.00;4489598;31;33634;-66
2023/04/14 09:04:52;;;;;;;5.93;3.85;;;;;;;14.28;58.93;97927.94;4495598;31;34433;-67
2023/04/14 09:07:21;;;;;;;7.22;4.43;;;;;;;14.37;58.84;97933.06;4480253;31;33652;-69
2023/04/14 09:09:48;;;;;;;6.45;3.30;;;;;;;14.58;58.12;97929.69;4488891;31;33735;-69
2023/04/14 09:12:16;;;;;;;8.40;4.60;;;;;;;14.56;57.92;97931.72;4497008;31;35020;-67
2023/04/14 09:14:45;;;;;;;9.07;5.22;;;;;;;14.33;58.86;97939.84;4484778;31;33467;-68
2023/04/14 09:17:12;;;;;;;2.50;2.08;;;;;;;14.44;58.42;97938.53;4490245;31;33809;-63
2023/04/14 09:19:40;;;;;;;3.92;2.58;;;;;;;14.24;59.63;97942.78;4491650;31;33438;-63
2023/04/14 09:22:28;;;;;;;4.80;2.75;;;;;;;14.31;59.10;97952.63;4487826;31;33623;-64
2023/04/14 09:24:56;;;;;;;7.30;4.28;;;;;;;13.58;61.45;97955.88;4481190;31;34448;-63
2023/04/14 09:27:23;;;;;;;7.43;4.03;;;;;;;13.56;62.71;97955.22;4487853;31;33665;-66
2023/04/14 09:29:56;;;;;;;2.42;2.00;;;;;;;14.24;61.01;97954.38;4486789;31;33878;-65
2023/04/14 09:32:24;;;;;;;4.28;2.70;;;;;;;14.33;60.71;97944.38;4492873;31;33664;-68
2023/04/14 09:34:53;;;;;;;3.90;2.47;;;;;;;14.40;60.81;97961.47;4491459;31;33190;-65
2023/04/14 09:37:24;;;;;;;5.00;2.85;;;;;;;14.05;62.73;97957.56;4496686;31;33747;-68
2023/04/14 09:39:54;;;;;;;5.90;4.15;;;;;;;14.20;62.76;97958.47;4490730;31;32464;-66
2023/04/14 09:42:37;;;;;;;5.60;3.67;;;;;;;14.14;62.78;97965.37;4493883;31;33134;-66
2023/04/14 09:45:05;;;;;;;7.07;3.72;;;;;;;14.11;63.46;97955.00;4487962;31;34975;-64
2023/04/14 09:47:33;;;;;;;5.45;4.45;;;;;;;14.17;63.65;97954.28;4496761;31;33874;-68
2023/04/14 09:50:02;;;;;;;3.65;3.25;;;;;;;14.14;64.15;97954.62;4485306;31;35830;-67
2023/04/14 09:52:41;;;;;;;10.98;4.40;;;;;;;14.12;64.81;97943.19;4499079;31;34778;-65
2023/04/14 09:55:14;;;;;;;6.75;5.03;;;;;;;13.79;66.08;97939.94;4492871;31;34547;-63
2023/04/14 09:57:49;;;;;;;7.70;4.85;;;;;;;14.24;65.08;97942.78;4485318;31;33355;-64
2023/04/14 10:00:20;;;;;;;7.62;3.72;;;;;;;14.37;64.91;97943.00;4490002;31;37699;-65
2023/04/14 10:02:48;;;;;;;3.30;2.33;;;;;;;14.43;64.84;97947.66;4499204;31;33971;-64
2023/04/14 10:05:18;;;;;;;3.78;3.20;;;;;;;14.29;65.08;97940.41;4493622;31;34157;-64
2023/04/14 10:07:46;;;;;;;5.03;3.80;;;;;;;13.52;68.19;97952.91;4497289;31;34050;-64
2023/04/14 10:10:13;;;;;;;7.25;4.68;;;;;;;13.33;69.87;97958.72;4495232;31;34201;-64
2023/04/14 10:12:43;;;;;;;4.50;3.42;;;;;;;13.38;70.26;97959.00;4490271;31;33939;-66
2023/04/14 10:15:11;;;;;;;6.05;3.37;;;;;;;13.84;69.11;97960.94;4497480;31;33237;-64
2023/04/14 10:17:39;;;;;;;3.65;2.53;;;;;;;13.68;68.93;97960.03;4495366;31;33500;-64
2023/04/14 10:20:07;;;;;;;5.10;2.20;;;;;;;13.96;67.12;97963.03;4489318;31;33773;-65
2023/04/14 10:22:35;;;;;;;9.52;5.05;;;;;;;14.11;66.68;97960.38;4499027;31;32440;-65
2023/04/14 10:25:05;;;;;;;5.15;4.32;;;;;;;14.35;65.65;97958.47;4492793;31;32608;-64
2023/04/14 10:27:33;;;;;;;3.08;2.25;;;;;;;14.27;66.11;97955.88;4485901;31;33681;-64
2023/04/14 10:30:01;;;;;;;5.47;3.60;;;;;;;14.49;66.11;97954.16;4483745;31;34871;-64
2023/04/14 10:32:32;;;;;;;5.45;3.65;;;;;;;14.14;66.64;97949.25;4482111;31;33459;-64
2023/04/14 10:35:04;;;;;;;6.00;4.50;;;;;;;14.39;66.55;97957.94;4484574;31;33318;-64
2023/04/14 10:37:33;;;;;;;7.87;3.95;;;;;;;14.23;67.31;97959.97;4488179;31;33856;-65
2023/04/14 10:40:04;;;;;;;3.20;2.33;;;;;;;13.98;68.04;97966.34;4493968;31;35533;-64
2023/04/14 10:42:51;;;;;;;5.12;1.98;;;;;;;14.16;67.73;97957.16;4496782;31;33187;-64
2023/04/14 10:45:20;;;;;;;3.10;2.47;;;;;;;13.97;69.09;97961.16;4496137;31;33200;-64
2023/04/14 10:47:48;;;;;;;7.00;3.20;;;;;;;14.08;68.37;97957.22;4491980;31;33754;-64
2023/04/14 10:50:18;;;;;;;4.90;2.87;;;;;;;13.24;71.02;97957.03;4485589;31;35518;-65
2023/04/14 10:52:54;;;;;;;4.85;3.25;;;;;;;13.89;69.44;97970.12;4491640;31;32384;-66
2023/04/14 10:55:23;;;;;;;3.67;2.72;;;;;;;13.08;71.81;97962.47;4484355;31;32260;-65
2023/04/14 10:57:53;;;;;;;2.92;2.40;;;;;;;13.13;72.70;97962.78;4483503;31;33318;-65
2023/04/14 11:00:22;;;;;;;6.53;2.53;;;;;;;13.72;70.05;97961.34;4494649;31;33973;-64
2023/04/14 11:03:09;;;;;;;7.18;2.92;;;;;;;12.64;75.33;97960.25;4493782;31;32674;-64
2023/04/14 11:05:44;;;;;;;4.68;2.95;;;;;;;13.30;71.71;97955.53;4491284;31;32277;-63
2023/04/14 11:08:16;;;;;;;6.65;3.53;;;;;;;12.54;74.91;97950.53;4493872;31;34383;-64
2023/04/14 11:10:48;;;;;;;4.03;3.50;;;;;;;12.52;74.90;97957.94;4488929;31;31552;-64
2023/04/14 11:13:16;;;;;;;5.18;3.42;;;;;;;12.34;75.99;97951.94;4486546;31;33662;-63
2023/04/14 11:15:48;;;;;;;4.45;3.62;;;;;;;13.18;73.04;97947.81;4485830;31;34563;-64
2023/04/14 11:18:19;;;;;;;6.22;3.35;;;;;;;13.52;71.66;97954.75;4487293;31;33525;-65
2023/04/14 11:20:50;;;;;;;23.27;2.92;;;;;;;12.87;73.51;97950.44;4488964;31;33010;-64
2023/04/14 11:23:25;;;;;;;8.35;3.53;;;;;;;12.72;75.26;97944.97;4492260;31;34777;-63
2023/04/14 11:25:55;;;;;;;2.08;1.67;;;;;;;12.85;74.57;97946.28;4489404;31;31968;-64
2023/04/14 11:28:33;;;;;;;3.70;2.42;;;;;;;12.62;76.21;97938.97;4494884;31;33632;-63
2023/04/14 11:31:02;;;;;;;5.07;3.53;;;;;;;12.36;78.20;97944.56;4495579;31;32539;-64
2023/04/14 11:33:32;;;;;;;3.62;2.28;;;;;;;12.75;75.75;97941.94;4488686;31;32779;-64
2023/04/14 11:36:01;;;;;;;2.03;1.83;;;;;;;13.10;74.07;97934.44;4485553;31;32603;-65
2023/04/14 11:38:29;;;;;;;6.10;3.55;;;;;;;13.56;72.54;97937.25;4490257;31;34972;-66
2023/04/14 11:40:56;;;;;;;5.68;4.43;;;;;;;13.35;73.69;97929.78;4497850;31;33833;-64
2023/04/14 11:43:24;;;;;;;6.47;4.00;;;;;;;13.38;73.07;97937.50;4492050;31;33851;-64
2023/04/14 11:45:52;;;;;;;5.43;4.37;;;;;;;13.71;71.91;97940.00;4497556;31;33105;-64
2023/04/14 11:48:20;;;;;;;9.90;3.15;;;;;;;12.57;77.10;97949.38;4486555;31;33458;-63